Weather History for KAZO - January, 2008

Change the Weather History Date:

Tuesday, January 1, 2008

  Actual Average Record
Temperature  
Mean Temperature 26 °F 25 °F  
Max Temperature 30 °F 31 °F 54 °F (2011)
Min Temperature 23 °F 19 °F -7 °F (1968)
Degree Days  
Heating Degree Days 38 40  
Month to date heating degree days 40  
Since 1 July heating degree days 2491  
Cooling Degree Days 0 0  
Month to date cooling degree days 0  
Year to date cooling degree days 0  
Moisture  
Dew Point 24 °F    
Average Humidity 86    
Maximum Humidity 96    
Minimum Humidity 79    
Precipitation  
Precipitation 0.16 in 0.07 in 1.73 in (1985)
Month to date precipitation 0.07  
Year to date precipitation 0.07  
Snow  
Snow 0.00 in - - ()
Snow Depth 9.00 in    
Sea Level Pressure  
Sea Level Pressure 30.00 in    
Wind  
Wind Speed 13 mph (NW)    
Max Wind Speed 20 mph    
Max Gust Speed 25 mph    
Visibility 2 miles    
Events Fog , Snow    
T = Trace of Precipitation, MM = Missing Value Source: NWS Daily Summary

Daily Weather History Graph

Daily Weather History Graph

Search for Another Location

Airport or City:

Trip Planner

Search our weather history database for the weather conditions in past years. The results will help you decide how hot, cold, wet, or windy it might be!

Date:

Astronomy

Jan. 01, 2008 Rise Set
Actual Time 8:11 AM EST 5:20 PM EST
Civil Twilight 7:39 AM EST 5:52 PM EST
Nautical Twilight 7:04 AM EST 6:27 PM EST
Astronomical Twilight 6:30 AM EST 7:01 PM EST
Moon 1:56 AM EST (1/1) 12:36 PM EST (1/1)
Length of Visible Light 10h 12m
Length of Day
9h 09m
Last Quarter, 37% of the Moon is Illuminated
Jan 1
Last Quarter
Jan 8
New
Jan 15
First Quarter
Jan 22
Full
Jan 30
Last Quarter

Hourly Weather History & Observations

Time (EST) Temp. Windchill Dew Point Humidity Pressure Visibility Wind Dir Wind Speed Gust Speed Precip Events Conditions
12:53 AM 30.9 °F 21.2 °F 30.0 °F 96% 29.70 in 0.5 mi North 12.7 mph - 0.03 in Fog , Snow Snow
1:53 AM 30.0 °F 18.3 °F 28.0 °F 92% 29.72 in 0.5 mi North 17.3 mph - 0.01 in Fog , Snow Snow
2:53 AM 30.0 °F 18.3 °F 27.0 °F 88% 29.76 in 0.8 mi NNW 17.3 mph - 0.00 in Snow Light Snow
3:12 AM 30.2 °F 18.9 °F 26.6 °F 86% 29.74 in 1.0 mi NNW 16.1 mph - 0.00 in Snow Light Snow
3:53 AM 30.0 °F 18.7 °F 27.0 °F 88% 29.80 in 1.2 mi NNW 16.1 mph - 0.00 in Snow Light Snow
4:16 AM 30.2 °F 19.8 °F 26.6 °F 86% 29.78 in 1.8 mi NNW 13.8 mph - 0.00 in Snow Light Snow
4:34 AM 30.2 °F 19.8 °F 26.6 °F 86% 29.79 in 2.0 mi NW 13.8 mph - 0.00 in Snow Light Snow
4:45 AM 30.2 °F 19.8 °F 26.6 °F 86% 29.80 in 3.0 mi NW 13.8 mph - 0.00 in Snow Light Snow
4:53 AM 30.0 °F 19.5 °F 26.1 °F 85% 29.84 in 3.0 mi NW 13.8 mph - 0.00 in Snow Light Snow
5:14 AM 30.2 °F 19.3 °F 26.6 °F 86% 29.82 in 5.0 mi NW 15.0 mph - 0.00 in   Overcast
5:53 AM 28.9 °F 18.2 °F 25.0 °F 85% 29.88 in 5.0 mi NW 13.8 mph - 0.00 in   Mostly Cloudy
6:53 AM 27.0 °F 16.1 °F 21.9 °F 81% 29.91 in 9.0 mi NNW 12.7 mph - 0.00 in   Scattered Clouds
7:53 AM 26.1 °F 16.8 °F 21.0 °F 81% 29.94 in 9.0 mi WNW 9.2 mph - N/A   Mostly Cloudy
8:53 AM 27.0 °F 16.7 °F 23.0 °F 85% 29.96 in 3.0 mi WNW 11.5 mph - 0.00 in Snow Light Snow
9:26 AM 28.4 °F 19.7 °F 24.8 °F 86% 29.94 in 4.0 mi WNW 9.2 mph - 0.00 in Snow Light Snow
9:49 AM 28.4 °F 22.2 °F 26.6 °F 93% 29.95 in 1.8 mi WNW 5.8 mph - 0.00 in Snow Light Snow
9:53 AM 28.9 °F 21.9 °F 26.1 °F 89% 29.98 in 1.2 mi West 6.9 mph - 0.00 in Snow Light Snow
10:09 AM 28.4 °F 22.2 °F 26.6 °F 93% 29.95 in 0.8 mi West 5.8 mph - 0.01 in Snow Light Snow
10:20 AM 28.4 °F 23.3 °F 26.6 °F 93% 29.96 in 0.2 mi West 4.6 mph - 0.02 in Fog , Snow Heavy Snow
10:28 AM 28.4 °F 23.3 °F 26.6 °F 93% 29.96 in 0.5 mi West 4.6 mph - 0.02 in Fog , Snow Snow
10:53 AM 30.0 °F 24.1 °F 28.0 °F 92% 30.00 in 0.8 mi NW 5.8 mph - 0.03 in Snow Light Snow
11:04 AM 30.2 °F 24.3 °F 28.4 °F 93% 29.97 in 0.5 mi NW 5.8 mph - 0.01 in Fog , Snow Snow
11:27 AM 30.2 °F 25.4 °F 28.4 °F 93% 29.97 in 1.0 mi WNW 4.6 mph - 0.04 in Snow Light Snow
11:42 AM 30.2 °F 21.3 °F 26.6 °F 86% 29.97 in 0.5 mi NNW 10.4 mph - 0.05 in Fog , Snow Snow
11:53 AM 30.0 °F 22.4 °F 27.0 °F 88% 30.01 in 0.8 mi NNW 8.1 mph 17.3 mph 0.07 in Snow Light Snow
12:01 PM 30.2 °F 22.6 °F 26.6 °F 86% 29.97 in 1.5 mi NNW 8.1 mph - 0.01 in Snow Light Snow
12:23 PM 30.2 °F 20.2 °F 24.8 °F 80% 29.97 in 2.0 mi NW 12.7 mph - 0.01 in Snow Light Snow
12:25 PM 30.2 °F 19.8 °F 24.8 °F 80% 29.97 in 1.8 mi NW 13.8 mph - 0.01 in Snow Light Snow
12:33 PM 30.2 °F 21.3 °F 24.8 °F 80% 29.97 in 1.0 mi NW 10.4 mph - 0.01 in Snow Light Snow
12:53 PM 28.9 °F 19.8 °F 25.0 °F 85% 30.00 in 1.2 mi NW 10.4 mph - 0.01 in Snow Light Snow
1:10 PM 28.4 °F 19.1 °F 24.8 °F 86% 29.97 in 2.0 mi NW 10.4 mph - 0.00 in Snow Light Snow
1:53 PM 28.9 °F 20.4 °F 25.0 °F 85% 30.01 in 1.8 mi NNW 9.2 mph - 0.01 in Snow Light Snow
2:12 PM 28.4 °F 20.4 °F 24.8 °F 86% 29.98 in 3.0 mi NW 8.1 mph - 0.00 in Snow Light Snow
2:18 PM 28.4 °F 18.0 °F 24.8 °F 86% 29.98 in 4.0 mi NW 12.7 mph - 0.00 in Snow Light Snow
2:53 PM 30.0 °F 19.5 °F 24.1 °F 79% 30.02 in 6.0 mi NNW 13.8 mph - 0.00 in Snow Light Snow
3:13 PM 28.4 °F 17.5 °F 23.0 °F 80% 30.00 in 2.5 mi NW 13.8 mph - 0.00 in Snow Light Snow
3:22 PM 28.4 °F 19.1 °F 24.8 °F 86% 30.00 in 1.5 mi NW 10.4 mph - 0.00 in Snow Light Snow
3:47 PM 28.4 °F 16.2 °F 23.0 °F 80% 30.01 in 2.5 mi NNW 17.3 mph - 0.00 in Snow Light Snow
3:53 PM 28.0 °F 16.1 °F 23.0 °F 81% 30.05 in 2.5 mi NNW 16.1 mph - 0.00 in Snow Light Snow
4:03 PM 28.4 °F 17.5 °F 23.0 °F 80% 30.02 in 1.8 mi NNW 13.8 mph - 0.00 in Snow Light Snow
4:13 PM 28.4 °F 17.5 °F 23.0 °F 80% 30.02 in 2.5 mi NNW 13.8 mph - 0.00 in Snow Light Snow
4:29 PM 26.6 °F 15.2 °F 23.0 °F 86% 30.03 in 2.0 mi NNW 13.8 mph - 0.00 in Snow Light Snow
4:44 PM 26.6 °F 15.2 °F 23.0 °F 86% 30.04 in 1.2 mi NNW 13.8 mph - 0.00 in Snow Light Snow
4:53 PM 27.0 °F 14.7 °F 23.0 °F 85% 30.08 in 1.5 mi NNW 16.1 mph - 0.00 in Snow Light Snow
5:53 PM 27.0 °F 15.6 °F 21.9 °F 81% 30.11 in 3.0 mi NNW 13.8 mph - 0.00 in Snow Light Snow
6:01 PM 26.6 °F 15.2 °F 21.2 °F 80% 30.07 in 2.5 mi NNW 13.8 mph - 0.00 in Snow Light Snow
6:41 PM 26.6 °F 16.8 °F 23.0 °F 86% 30.09 in 1.5 mi NW 10.4 mph - 0.00 in Snow Light Snow
6:53 PM 27.0 °F 16.7 °F 23.0 °F 85% 30.13 in 1.0 mi NW 11.5 mph - 0.00 in Snow Light Snow
7:15 PM 26.6 °F 13.1 °F 21.2 °F 80% 30.10 in 1.2 mi NW 19.6 mph 24.2 mph 0.00 in Snow Light Snow
7:47 PM 26.6 °F 15.2 °F 23.0 °F 86% 30.10 in 0.8 mi NW 13.8 mph - 0.00 in Snow Light Snow
7:53 PM 26.1 °F 14.5 °F 23.0 °F 88% 30.14 in 0.8 mi NW 13.8 mph - 0.00 in Snow Light Snow
8:02 PM 26.6 °F 16.2 °F 23.0 °F 86% 30.11 in 0.8 mi NW 11.5 mph - 0.00 in Snow Light Snow
8:15 PM 26.6 °F 13.4 °F 21.2 °F 80% 30.11 in 1.0 mi NW 18.4 mph 24.2 mph 0.00 in Snow Light Snow
8:48 PM 24.8 °F 12.4 °F 21.2 °F 86% 30.12 in 0.8 mi NW 15.0 mph - 0.00 in Snow Light Snow
8:53 PM 25.0 °F 12.6 °F 21.0 °F 85% 30.16 in 0.8 mi NW 15.0 mph - 0.00 in Snow Light Snow
9:16 PM 24.8 °F 13.4 °F 21.2 °F 86% 30.13 in 1.0 mi NW 12.7 mph - 0.00 in Snow Light Snow
9:53 PM 24.1 °F 11.5 °F 19.9 °F 84% 30.17 in 1.0 mi WNW 15.0 mph 25.3 mph 0.00 in Snow Light Snow
10:30 PM 23.0 °F 9.6 °F 19.4 °F 86% 30.14 in 1.0 mi WNW 16.1 mph 23.0 mph 0.00 in Snow Light Snow
10:42 PM 23.0 °F 9.6 °F 19.4 °F 86% 30.14 in 0.8 mi NW 16.1 mph - 0.00 in Snow Light Snow
10:53 PM 23.0 °F 9.6 °F 19.9 °F 88% 30.19 in 0.8 mi NW 16.1 mph - 0.00 in Snow Light Snow
11:08 PM 23.0 °F 9.6 °F 19.4 °F 86% 30.15 in 1.0 mi NW 16.1 mph 20.7 mph 0.00 in Snow Light Snow
11:17 PM 23.0 °F 9.6 °F 19.4 °F 86% 30.15 in 1.2 mi NW 16.1 mph - 0.00 in Snow Light Snow
11:28 PM 23.0 °F 10.6 °F 19.4 °F 86% 30.15 in 1.8 mi NW 13.8 mph - 0.00 in Snow Light Snow
11:37 PM 23.0 °F 9.6 °F 19.4 °F 86% 30.16 in 2.0 mi NW 16.1 mph - 0.00 in Snow Light Snow
11:49 PM 23.0 °F 11.1 °F 19.4 °F 86% 30.16 in 2.5 mi NW 12.7 mph - 0.00 in Snow Light Snow
11:53 PM 23.0 °F 10.6 °F 19.9 °F 88% 30.21 in 3.0 mi NW 13.8 mph - 0.00 in Snow Light Snow